createdAt,value
2018-11-25T00:02:25.187Z,22.40
2018-11-25T00:05:29.831Z,20.60
2018-11-25T00:08:34.783Z,21.33
2018-11-25T00:11:39.414Z,22.00
2018-11-25T00:14:44.204Z,22.63
2018-11-25T00:17:48.977Z,21.03
2018-11-25T00:20:53.841Z,21.37
2018-11-25T00:23:58.874Z,21.27
2018-11-25T00:27:03.595Z,21.00
2018-11-25T00:30:13.346Z,20.77
2018-11-25T00:33:18.146Z,21.07
2018-11-25T00:36:23.141Z,20.30
2018-11-25T00:39:27.813Z,22.20
2018-11-25T00:42:32.689Z,22.37
2018-11-25T00:45:37.432Z,22.73
2018-11-25T00:48:42.131Z,21.53
2018-11-25T00:51:46.767Z,19.33
2018-11-25T00:54:51.676Z,20.10
2018-11-25T00:57:56.344Z,20.23
2018-11-25T01:01:01.577Z,20.23
2018-11-25T01:04:06.293Z,20.17
2018-11-25T01:07:10.950Z,21.17
2018-11-25T01:10:16.934Z,20.97
2018-11-25T01:13:21.633Z,20.53
2018-11-25T01:16:26.322Z,22.43
2018-11-25T01:19:30.918Z,21.83
2018-11-25T01:22:35.575Z,21.73
2018-11-25T01:25:40.234Z,21.83
2018-11-25T01:28:44.829Z,19.37
2018-11-25T01:31:49.578Z,21.27
2018-11-25T01:35:00.916Z,21.23
2018-11-25T01:37:58.876Z,20.00
2018-11-25T01:41:03.490Z,21.27
2018-11-25T01:44:08.176Z,20.40
2018-11-25T01:47:12.866Z,20.60
2018-11-25T01:50:18.538Z,21.57
2018-11-25T01:53:23.903Z,22.23
2018-11-25T01:56:30.016Z,19.90
2018-11-25T01:59:34.729Z,21.00
2018-11-25T02:02:39.418Z,21.63
2018-11-25T02:05:44.794Z,21.57
2018-11-25T02:08:49.554Z,20.67
2018-11-25T02:11:54.202Z,21.30
2018-11-25T02:14:58.878Z,22.30
2018-11-25T02:18:03.479Z,24.17
2018-11-25T02:21:08.206Z,23.30
2018-11-25T02:24:12.829Z,17.93
2018-11-25T02:27:17.440Z,21.00
2018-11-25T02:30:22.185Z,21.50
2018-11-25T02:33:26.948Z,20.27
2018-11-25T02:36:33.337Z,17.53
2018-11-25T02:39:38.094Z,17.90
2018-11-25T02:42:42.800Z,17.37
2018-11-25T02:45:47.531Z,16.63
2018-11-25T02:48:52.252Z,16.80
2018-11-25T02:51:57.192Z,14.80
2018-11-25T02:55:01.953Z,15.63
2018-11-25T02:58:07.000Z,14.63
2018-11-25T03:01:11.599Z,16.57
2018-11-25T03:04:16.199Z,16.23
2018-11-25T03:07:20.903Z,16.50
2018-11-25T03:10:25.661Z,17.83
2018-11-25T03:13:30.561Z,17.80
2018-11-25T03:16:35.175Z,18.37
2018-11-25T03:19:40.038Z,18.83
2018-11-25T03:22:44.749Z,19.57
2018-11-25T03:25:49.803Z,17.97
2018-11-25T03:28:54.632Z,17.37
2018-11-25T03:31:59.531Z,18.37
2018-11-25T03:35:04.191Z,18.77
2018-11-25T03:38:08.974Z,19.30
2018-11-25T03:41:13.741Z,19.57
2018-11-25T03:44:18.406Z,19.73
2018-11-25T03:47:23.524Z,20.07
2018-11-25T03:50:28.589Z,19.20
2018-11-25T03:53:33.905Z,20.50
2018-11-25T03:56:38.537Z,20.10
2018-11-25T03:59:43.550Z,21.13
2018-11-25T04:02:48.746Z,18.63
2018-11-25T04:05:53.301Z,20.33
2018-11-25T04:08:57.915Z,19.87
2018-11-25T04:12:02.591Z,21.73
2018-11-25T04:15:11.160Z,20.27
2018-11-25T04:18:15.656Z,21.47
2018-11-25T04:21:20.506Z,23.33
2018-11-25T04:24:25.194Z,21.40
2018-11-25T04:27:29.979Z,23.93
2018-11-25T04:30:34.567Z,22.17
2018-11-25T04:33:39.183Z,21.10
2018-11-25T04:36:43.861Z,19.53
2018-11-25T04:39:48.585Z,20.57
2018-11-25T04:42:53.345Z,21.37
2018-11-25T04:45:58.011Z,20.87
2018-11-25T04:49:02.765Z,20.27
2018-11-25T04:52:07.504Z,21.00
2018-11-25T04:55:12.300Z,20.77
2018-11-25T04:58:17.018Z,20.77
2018-11-25T05:01:23.156Z,20.40
2018-11-25T05:04:27.824Z,20.03
2018-11-25T05:07:35.616Z,19.33
2018-11-25T05:10:40.397Z,18.03
2018-11-25T05:13:45.032Z,17.00
2018-11-25T05:16:49.763Z,17.30
2018-11-25T05:19:54.542Z,16.87
2018-11-25T05:22:59.167Z,18.13
2018-11-25T05:26:03.801Z,17.03
2018-11-25T05:29:08.370Z,16.80
2018-11-25T05:32:12.953Z,17.20
2018-11-25T05:35:19.180Z,17.90
2018-11-25T05:38:23.696Z,16.67
2018-11-25T05:41:28.305Z,19.17
2018-11-25T05:44:33.133Z,16.70
2018-11-25T05:47:37.752Z,17.40
2018-11-25T05:50:42.411Z,17.97
2018-11-25T05:53:46.950Z,17.37
2018-11-25T05:56:51.714Z,15.57
2018-11-25T05:59:56.436Z,16.27
2018-11-25T06:03:01.587Z,16.33
2018-11-25T06:06:06.354Z,15.97
2018-11-25T06:09:11.425Z,14.70
2018-11-25T06:12:16.091Z,14.27
2018-11-25T06:15:20.842Z,14.33
2018-11-25T06:18:25.487Z,14.90
2018-11-25T06:21:30.205Z,16.00
2018-11-25T06:24:34.806Z,14.93
2018-11-25T06:27:39.396Z,16.20
2018-11-25T06:30:44.078Z,14.83
2018-11-25T06:33:48.704Z,15.40
2018-11-25T06:36:53.664Z,15.57
2018-11-25T06:39:58.461Z,16.70
2018-11-25T06:43:03.427Z,19.97
2018-11-25T06:46:11.298Z,17.70
2018-11-25T06:49:15.983Z,18.97
2018-11-25T06:52:20.565Z,18.43
2018-11-25T06:55:25.234Z,19.43
2018-11-25T06:58:30.024Z,16.50
2018-11-25T07:01:34.721Z,16.00
2018-11-25T07:04:39.353Z,15.10
2018-11-25T07:07:44.070Z,14.53
2018-11-25T07:10:48.661Z,16.10
2018-11-25T07:13:53.246Z,14.73
2018-11-25T07:16:57.890Z,15.90
2018-11-25T07:20:02.504Z,16.70
2018-11-25T07:23:07.109Z,18.40
2018-11-25T07:26:11.796Z,19.50
2018-11-25T07:29:16.391Z,17.47
2018-11-25T07:32:21.225Z,17.50
2018-11-25T07:35:27.620Z,16.80
2018-11-25T07:38:32.359Z,18.10
2018-11-25T07:41:37.104Z,16.37
2018-11-25T07:44:41.971Z,15.60
2018-11-25T07:47:46.597Z,14.90
2018-11-25T07:50:51.205Z,15.43
2018-11-25T07:53:55.844Z,14.23
2018-11-25T07:57:00.598Z,16.23
2018-11-25T08:00:07.692Z,19.10
2018-11-25T08:03:12.970Z,20.00
2018-11-25T08:06:17.712Z,26.50
2018-11-25T08:09:22.540Z,16.70
2018-11-25T08:12:27.162Z,16.53
2018-11-25T08:15:31.908Z,16.53
2018-11-25T08:18:36.646Z,15.93
2018-11-25T08:21:41.384Z,15.00
2018-11-25T08:24:46.015Z,17.73
2018-11-25T08:27:50.724Z,18.10
2018-11-25T08:30:55.360Z,15.63
2018-11-25T08:34:00.029Z,17.30
2018-11-25T08:37:04.686Z,16.40
2018-11-25T08:40:16.562Z,16.73
2018-11-25T08:43:21.344Z,15.13
2018-11-25T08:46:25.987Z,16.53
2018-11-25T08:49:30.661Z,15.77
2018-11-25T08:52:35.363Z,15.23
2018-11-25T08:55:39.982Z,15.43
2018-11-25T08:58:44.708Z,25.47
2018-11-25T09:01:49.378Z,19.60
2018-11-25T09:04:54.030Z,16.60
2018-11-25T09:07:58.925Z,15.67
2018-11-25T09:11:03.753Z,15.17
2018-11-25T09:14:08.506Z,15.17
2018-11-25T09:17:13.195Z,17.43
2018-11-25T09:20:22.578Z,21.40
2018-11-25T09:23:27.229Z,15.23
2018-11-25T09:26:31.832Z,16.33
2018-11-25T09:29:37.152Z,17.20
2018-11-25T09:32:41.932Z,17.20
2018-11-25T09:35:46.701Z,17.47
2018-11-25T09:38:51.443Z,18.30
2018-11-25T09:41:56.271Z,16.47
2018-11-25T09:45:01.159Z,18.57
2018-11-25T09:48:06.158Z,17.00
2018-11-25T09:51:10.890Z,17.33
2018-11-25T09:54:15.580Z,16.07
2018-11-25T09:57:20.524Z,18.27
2018-11-25T10:00:27.092Z,18.60
2018-11-25T10:03:32.042Z,26.53
2018-11-25T10:06:36.775Z,16.90
2018-11-25T10:09:41.609Z,16.77
2018-11-25T10:12:46.382Z,20.40
2018-11-25T10:15:51.170Z,21.63
2018-11-25T10:18:56.353Z,22.37
2018-11-25T10:22:00.967Z,21.77
2018-11-25T10:25:06.973Z,23.70
2018-11-25T10:28:12.311Z,22.97
2018-11-25T10:31:17.701Z,23.83
2018-11-25T10:34:22.408Z,23.10
2018-11-25T10:37:27.144Z,23.47
2018-11-25T10:40:32.154Z,21.00
2018-11-25T10:43:36.755Z,22.17
2018-11-25T10:46:41.517Z,22.77
2018-11-25T10:49:46.282Z,23.67
2018-11-25T10:52:51.222Z,20.27
2018-11-25T10:55:56.124Z,20.90
2018-11-25T10:59:00.935Z,21.90
2018-11-25T11:02:10.895Z,20.43
2018-11-25T11:05:21.059Z,18.10
2018-11-25T11:08:26.007Z,16.57
2018-11-25T11:11:31.088Z,14.50
2018-11-25T11:14:36.018Z,15.93
2018-11-25T11:17:41.247Z,16.67
2018-11-25T11:20:46.018Z,16.63
2018-11-25T11:23:50.726Z,17.00
2018-11-25T11:26:55.410Z,16.33
2018-11-25T11:30:00.109Z,17.50
2018-11-25T11:33:04.860Z,16.27
2018-11-25T11:36:09.495Z,16.17
2018-11-25T11:39:15.131Z,15.77
2018-11-25T11:42:19.891Z,15.13
2018-11-25T11:45:24.652Z,16.63
2018-11-25T11:48:29.474Z,15.43
2018-11-25T11:51:34.285Z,16.60
2018-11-25T11:54:39.150Z,17.07
2018-11-25T11:57:44.909Z,16.40
2018-11-25T12:00:49.765Z,17.40
2018-11-25T12:03:54.492Z,16.63
2018-11-25T12:06:59.326Z,16.73
2018-11-25T12:10:05.022Z,16.97
2018-11-25T12:13:10.296Z,17.13
2018-11-25T12:16:15.434Z,18.23
2018-11-25T12:19:20.638Z,20.23
2018-11-25T12:22:25.441Z,18.70
2018-11-25T12:25:31.407Z,19.67
2018-11-25T12:28:36.509Z,16.50
2018-11-25T12:31:41.634Z,16.10
2018-11-25T12:34:47.044Z,16.70
2018-11-25T12:37:51.760Z,22.50
2018-11-25T12:40:56.681Z,18.40
2018-11-25T12:44:01.378Z,18.60
2018-11-25T12:47:06.354Z,18.90
2018-11-25T12:50:14.032Z,16.73
2018-11-25T12:53:18.966Z,16.97
2018-11-25T12:56:23.598Z,18.20
2018-11-25T12:59:28.452Z,16.90
2018-11-25T13:02:33.356Z,17.70
2018-11-25T13:05:45.655Z,19.10
2018-11-25T13:08:44.497Z,17.03
2018-11-25T13:11:52.538Z,18.00
2018-11-25T13:14:56.371Z,18.37
2018-11-25T13:18:01.111Z,17.73
2018-11-25T13:21:05.738Z,18.43
2018-11-25T13:24:10.831Z,19.17
2018-11-25T13:27:22.534Z,19.90
2018-11-25T13:30:32.074Z,19.80
2018-11-25T13:33:37.142Z,21.23
2018-11-25T13:36:41.940Z,20.43
2018-11-25T13:39:47.015Z,20.63
2018-11-25T13:42:51.892Z,20.93
2018-11-25T13:45:56.790Z,20.47
2018-11-25T13:49:01.935Z,21.43
2018-11-25T13:52:07.820Z,21.83
2018-11-25T13:55:17.706Z,21.07
2018-11-25T13:58:22.971Z,22.97
2018-11-25T14:01:28.548Z,22.67
2018-11-25T14:04:33.319Z,21.87
2018-11-25T14:07:38.153Z,22.57
2018-11-25T14:10:43.190Z,22.80
2018-11-25T14:13:47.865Z,23.37
2018-11-25T14:16:52.698Z,23.40
2018-11-25T14:19:57.346Z,23.60
2018-11-25T14:23:02.336Z,22.97
2018-11-25T14:26:14.929Z,22.47
2018-11-25T14:29:19.647Z,22.77
2018-11-25T14:32:24.792Z,22.57
2018-11-25T14:35:29.904Z,23.57
2018-11-25T14:38:34.514Z,21.40
2018-11-25T14:41:39.629Z,22.37
2018-11-25T14:44:44.949Z,24.20
2018-11-25T14:47:50.276Z,24.53
2018-11-25T14:50:55.202Z,24.33
2018-11-25T14:54:02.323Z,21.30
2018-11-25T14:57:07.297Z,21.50
2018-11-25T15:00:19.274Z,23.63
2018-11-25T15:03:23.904Z,22.10
2018-11-25T15:06:29.472Z,21.30
2018-11-25T15:09:33.956Z,20.23
2018-11-25T15:12:38.711Z,19.80
2018-11-25T15:15:43.525Z,22.23
2018-11-25T15:18:48.276Z,22.73
2018-11-25T15:21:53.107Z,22.67
2018-11-25T15:24:57.953Z,20.10
2018-11-25T15:28:03.419Z,24.43
2018-11-25T15:31:08.133Z,21.57
2018-11-25T15:34:13.692Z,20.63
2018-11-25T15:37:18.493Z,22.00
2018-11-25T15:40:26.306Z,20.90
2018-11-25T15:43:31.792Z,22.67
2018-11-25T15:46:36.486Z,20.27
2018-11-25T15:49:41.111Z,21.00
2018-11-25T15:52:46.118Z,21.00
2018-11-25T15:55:56.625Z,22.13
2018-11-25T15:59:01.377Z,23.27
2018-11-25T16:02:07.282Z,23.70
2018-11-25T16:05:14.636Z,23.60
2018-11-25T16:08:20.075Z,28.30
2018-11-25T16:11:24.816Z,23.90
2018-11-25T16:14:30.365Z,22.07
2018-11-25T16:17:35.695Z,22.17
2018-11-25T16:20:40.289Z,23.83
2018-11-25T16:23:45.941Z,22.57
2018-11-25T16:26:50.556Z,21.60
2018-11-25T16:29:55.169Z,21.67
2018-11-25T16:33:00.028Z,22.13
2018-11-25T16:36:04.928Z,22.63
2018-11-25T16:39:11.232Z,22.43
2018-11-25T16:42:16.120Z,22.47
2018-11-25T16:45:20.970Z,21.93
2018-11-25T16:48:25.764Z,21.63
2018-11-25T16:51:30.800Z,19.20
2018-11-25T16:54:35.550Z,27.87
2018-11-25T16:57:40.657Z,19.23
2018-11-25T17:00:45.535Z,22.20
2018-11-25T17:03:50.181Z,20.73
2018-11-25T17:06:55.606Z,20.37
2018-11-25T17:10:00.458Z,21.80
2018-11-25T17:13:05.221Z,20.23
2018-11-25T17:16:10.486Z,19.40
2018-11-25T17:19:15.099Z,20.43
2018-11-25T17:22:20.628Z,19.73
2018-11-25T17:25:25.429Z,20.60
2018-11-25T17:28:30.739Z,19.83
2018-11-25T17:31:35.902Z,18.37
2018-11-25T17:34:41.341Z,20.50
2018-11-25T17:37:46.139Z,19.27
2018-11-25T17:40:51.037Z,18.30
2018-11-25T17:43:55.806Z,19.83
2018-11-25T17:47:00.824Z,22.20
2018-11-25T17:50:11.431Z,23.13
2018-11-25T17:53:20.708Z,20.30
2018-11-25T17:56:21.500Z,16.57
2018-11-25T17:59:26.281Z,18.60
2018-11-25T18:02:31.918Z,19.60
2018-11-25T18:05:38.917Z,20.07
2018-11-25T18:08:41.823Z,19.10
2018-11-25T18:11:47.428Z,19.40
2018-11-25T18:14:52.232Z,18.47
2018-11-25T18:18:00.600Z,18.93
2018-11-25T18:21:08.487Z,18.10
2018-11-25T18:24:13.374Z,18.00
2018-11-25T18:27:18.330Z,18.70
2018-11-25T18:30:23.516Z,18.73
2018-11-25T18:33:29.431Z,18.17
2018-11-25T18:36:34.243Z,18.93
2018-11-25T18:39:39.416Z,18.00
2018-11-25T18:42:45.137Z,19.27
2018-11-25T18:45:50.111Z,19.47
2018-11-25T18:48:56.106Z,20.47
2018-11-25T18:52:05.399Z,21.50
2018-11-25T18:55:03.867Z,23.23
2018-11-25T18:58:08.652Z,30.00
2018-11-25T19:02:29.901Z,21.33
2018-11-25T19:05:35.428Z,29.70
2018-11-25T19:08:40.291Z,24.03
2018-11-25T19:11:45.866Z,23.13
2018-11-25T19:14:50.530Z,28.03
2018-11-25T19:17:55.269Z,21.47
2018-11-25T19:21:00.530Z,20.57
2018-11-25T19:24:05.375Z,21.67
2018-11-25T19:27:10.105Z,20.63
2018-11-25T19:30:16.126Z,20.17
2018-11-25T19:33:21.724Z,24.53
2018-11-25T19:36:27.240Z,22.57
2018-11-25T19:39:32.015Z,22.47
2018-11-25T19:42:36.826Z,25.03
2018-11-25T19:45:41.628Z,33.47
2018-11-25T19:48:46.985Z,29.50
2018-11-25T19:51:52.422Z,28.90
2018-11-25T19:54:57.159Z,26.20
2018-11-25T19:58:01.836Z,26.17
2018-11-25T20:01:07.704Z,26.63
2018-11-25T20:04:12.401Z,27.10
2018-11-25T20:07:16.962Z,26.63
2018-11-25T20:10:24.869Z,28.30
2018-11-25T20:13:29.812Z,25.30
2018-11-25T20:16:39.832Z,25.17
2018-11-25T20:19:44.590Z,25.10
2018-11-25T20:22:50.078Z,31.87
2018-11-25T20:25:54.807Z,30.60
2018-11-25T20:28:59.448Z,29.93
2018-11-25T20:32:09.339Z,27.33
2018-11-25T20:35:14.405Z,28.17
2018-11-25T20:39:22.113Z,32.00
2018-11-25T20:42:26.758Z,26.03
2018-11-25T20:45:39.060Z,24.60
2018-11-25T20:48:41.375Z,28.07
2018-11-25T20:51:51.032Z,25.00
2018-11-25T20:54:56.168Z,23.60
2018-11-25T20:58:00.941Z,35.00
2018-11-25T21:01:05.723Z,28.03
2018-11-25T21:04:10.462Z,23.10
2018-11-25T21:07:15.251Z,23.27
2018-11-25T21:10:21.250Z,23.50
2018-11-25T21:13:26.158Z,21.07
2018-11-25T21:16:30.864Z,23.73
2018-11-25T21:19:35.626Z,21.83
2018-11-25T21:22:40.311Z,17.70
2018-11-25T21:25:45.056Z,21.07
2018-11-25T21:28:49.762Z,23.60
2018-11-25T21:31:54.578Z,24.97
2018-11-25T21:34:59.377Z,21.90
2018-11-25T21:38:04.371Z,20.27
2018-11-25T21:41:09.086Z,19.90
2018-11-25T21:44:14.671Z,18.30
2018-11-25T21:47:19.452Z,17.20
2018-11-25T21:50:26.216Z,16.30
2018-11-25T21:53:30.912Z,16.20
2018-11-25T21:56:35.877Z,16.20
2018-11-25T21:59:40.507Z,15.23
2018-11-25T22:02:45.340Z,15.80
2018-11-25T22:05:50.249Z,15.63
2018-11-25T22:08:54.931Z,14.77
2018-11-25T22:11:59.606Z,15.77
2018-11-25T22:15:04.547Z,14.63
2018-11-25T22:18:09.477Z,14.30
2018-11-25T22:21:14.611Z,15.17
2018-11-25T22:24:19.234Z,14.10
2018-11-25T22:27:23.942Z,14.57
2018-11-25T22:30:28.745Z,13.47
2018-11-25T22:33:33.603Z,14.27
2018-11-25T22:36:38.444Z,15.50
2018-11-25T22:39:43.125Z,14.77
2018-11-25T22:42:49.254Z,14.70
2018-11-25T22:45:53.950Z,15.63
2018-11-25T22:48:58.959Z,15.23
2018-11-25T22:52:03.658Z,14.80
2018-11-25T22:55:24.920Z,13.93
2018-11-25T22:58:29.562Z,14.93
2018-11-25T23:01:34.343Z,14.70
2018-11-25T23:04:55.836Z,14.47
2018-11-25T23:08:00.737Z,14.87
2018-11-25T23:11:06.625Z,15.97
2018-11-25T23:14:11.577Z,15.73
2018-11-25T23:17:17.004Z,15.03
2018-11-25T23:20:21.890Z,15.80
2018-11-25T23:23:26.612Z,14.90
2018-11-25T23:26:31.339Z,14.90
2018-11-25T23:29:36.096Z,16.17
2018-11-25T23:32:40.839Z,16.73
2018-11-25T23:35:45.543Z,18.00
2018-11-25T23:38:50.140Z,29.10
2018-11-25T23:41:54.709Z,20.23
2018-11-25T23:44:59.374Z,17.70
2018-11-25T23:48:04.006Z,21.13
2018-11-25T23:51:08.729Z,17.53
2018-11-25T23:54:13.520Z,17.10
2018-11-25T23:57:18.113Z,16.77
